createdAt,value
2019-05-07T00:01:34.146Z,7.43
2019-05-07T00:03:12.247Z,8.10
2019-05-07T00:04:48.596Z,7.87
2019-05-07T00:06:25.060Z,8.10
2019-05-07T00:08:02.964Z,7.97
2019-05-07T00:09:39.748Z,7.90
2019-05-07T00:11:16.185Z,8.30
2019-05-07T00:12:52.629Z,8.23
2019-05-07T00:14:29.035Z,7.73
2019-05-07T00:16:05.536Z,8.37
2019-05-07T00:17:42.886Z,8.03
2019-05-07T00:19:19.236Z,7.70
2019-05-07T00:20:55.762Z,8.17
2019-05-07T00:22:32.705Z,7.67
2019-05-07T00:24:13.187Z,7.83
2019-05-07T00:25:49.721Z,8.30
2019-05-07T00:27:26.105Z,7.90
2019-05-07T00:29:02.599Z,7.30
2019-05-07T00:30:38.966Z,8.30
2019-05-07T00:32:15.310Z,8.17
2019-05-07T00:33:52.606Z,7.90
2019-05-07T00:35:32.381Z,8.20
2019-05-07T00:37:12.936Z,7.90
2019-05-07T00:38:55.956Z,7.77
2019-05-07T00:40:36.476Z,7.63
2019-05-07T00:42:26.401Z,7.73
2019-05-07T00:44:03.337Z,7.50
2019-05-07T00:45:47.308Z,8.00
2019-05-07T00:47:23.742Z,8.23
2019-05-07T00:49:02.291Z,8.23
2019-05-07T00:50:41.951Z,8.37
2019-05-07T00:52:18.136Z,8.00
2019-05-07T00:53:54.781Z,7.90
2019-05-07T00:55:32.591Z,8.13
2019-05-07T00:57:08.965Z,8.17
2019-05-07T00:58:45.324Z,7.67
2019-05-07T01:00:22.401Z,8.10
2019-05-07T01:01:58.811Z,8.50
2019-05-07T01:03:35.307Z,8.13
2019-05-07T01:05:12.362Z,7.60
2019-05-07T01:06:48.816Z,8.10
2019-05-07T01:08:25.099Z,7.40
2019-05-07T01:10:02.196Z,8.00
2019-05-07T01:11:38.902Z,7.90
2019-05-07T01:13:15.262Z,7.97
2019-05-07T01:14:52.908Z,8.30
2019-05-07T01:16:29.672Z,7.97
2019-05-07T01:18:06.033Z,8.10
2019-05-07T01:19:42.504Z,8.33
2019-05-07T01:21:18.854Z,7.37
2019-05-07T01:22:55.478Z,7.90
2019-05-07T01:24:32.301Z,7.40
2019-05-07T01:26:08.706Z,7.93
2019-05-07T01:27:45.058Z,8.33
2019-05-07T01:29:22.596Z,7.87
2019-05-07T01:30:59.195Z,8.17
2019-05-07T01:32:37.361Z,7.93
2019-05-07T01:34:24.223Z,7.67
2019-05-07T01:36:02.501Z,7.90
2019-05-07T01:37:38.851Z,8.03
2019-05-07T01:39:15.242Z,7.70
2019-05-07T01:40:52.130Z,8.10
2019-05-07T01:42:28.522Z,7.47
2019-05-07T01:44:05.050Z,7.47
2019-05-07T01:45:49.593Z,7.57
2019-05-07T01:47:23.842Z,7.57
2019-05-07T01:48:59.301Z,8.33
2019-05-07T01:50:35.607Z,7.80
2019-05-07T01:52:13.338Z,8.20
2019-05-07T01:53:49.846Z,7.97
2019-05-07T01:55:26.163Z,8.40
2019-05-07T01:57:03.014Z,7.73
2019-05-07T01:58:39.598Z,7.77
2019-05-07T02:00:16.400Z,8.00
2019-05-07T02:01:55.384Z,8.77
2019-05-07T02:03:33.356Z,8.43
2019-05-07T02:05:12.283Z,8.20
2019-05-07T02:07:06.536Z,8.50
2019-05-07T02:08:47.214Z,8.03
2019-05-07T02:10:32.069Z,8.57
2019-05-07T02:12:16.474Z,8.00
2019-05-07T02:13:53.042Z,8.50
2019-05-07T02:15:29.423Z,8.63
2019-05-07T02:17:05.956Z,7.97
2019-05-07T02:18:42.597Z,8.20
2019-05-07T02:20:19.145Z,8.57
2019-05-07T02:21:55.425Z,8.83
2019-05-07T02:23:33.123Z,8.67
2019-05-07T02:25:09.663Z,8.80
2019-05-07T02:26:45.854Z,8.90
2019-05-07T02:28:22.691Z,8.27
2019-05-07T02:29:58.961Z,8.43
2019-05-07T02:31:35.346Z,8.73
2019-05-07T02:33:13.809Z,9.50
2019-05-07T02:34:49.762Z,9.10
2019-05-07T02:36:26.184Z,8.63
2019-05-07T02:38:07.263Z,8.47
2019-05-07T02:39:48.339Z,8.53
2019-05-07T02:41:29.177Z,8.30
2019-05-07T02:43:05.575Z,9.10
2019-05-07T02:45:04.055Z,8.53
2019-05-07T02:46:44.479Z,9.27
2019-05-07T02:48:23.721Z,8.53
2019-05-07T02:50:03.113Z,8.47
2019-05-07T02:51:43.631Z,8.40
2019-05-07T02:53:23.682Z,8.20
2019-05-07T02:55:03.938Z,8.63
2019-05-07T02:56:42.973Z,8.73
2019-05-07T02:58:18.989Z,8.37
2019-05-07T02:59:55.711Z,8.60
2019-05-07T03:01:33.646Z,8.83
2019-05-07T03:03:13.503Z,8.60
2019-05-07T03:04:48.556Z,8.10
2019-05-07T03:06:24.845Z,8.00
2019-05-07T03:08:03.286Z,8.17
2019-05-07T03:09:42.828Z,8.13
2019-05-07T03:11:17.902Z,8.57
2019-05-07T03:12:54.901Z,8.20
2019-05-07T03:14:32.497Z,7.90
2019-05-07T03:16:09.168Z,8.17
2019-05-07T03:17:45.531Z,8.03
2019-05-07T03:19:24.541Z,8.90
2019-05-07T03:21:03.446Z,7.93
2019-05-07T03:22:42.643Z,8.40
2019-05-07T03:24:23.148Z,8.63
2019-05-07T03:26:03.970Z,8.27
2019-05-07T03:27:39.254Z,7.87
2019-05-07T03:29:17.244Z,8.67
2019-05-07T03:30:58.167Z,8.60
2019-05-07T03:32:40.663Z,8.57
2019-05-07T03:34:37.618Z,8.23
2019-05-07T03:36:16.779Z,7.53
2019-05-07T03:37:54.708Z,7.77
2019-05-07T03:39:33.625Z,8.27
2019-05-07T03:41:12.716Z,8.47
2019-05-07T03:42:48.057Z,8.33
2019-05-07T03:44:44.648Z,7.90
2019-05-07T03:46:23.489Z,8.77
2019-05-07T03:48:13.262Z,8.00
2019-05-07T03:49:48.672Z,7.43
2019-05-07T03:51:25.090Z,7.27
2019-05-07T03:53:02.762Z,7.97
2019-05-07T03:54:39.526Z,7.10
2019-05-07T03:56:15.886Z,8.37
2019-05-07T03:57:52.869Z,7.40
2019-05-07T03:59:29.349Z,6.70
2019-05-07T04:01:05.976Z,7.90
2019-05-07T04:02:43.765Z,7.87
2019-05-07T04:04:22.909Z,7.43
2019-05-07T04:05:58.625Z,8.07
2019-05-07T04:07:35.228Z,7.60
2019-05-07T04:09:13.295Z,8.00
2019-05-07T04:10:49.970Z,8.07
2019-05-07T04:12:26.390Z,7.57
2019-05-07T04:14:02.890Z,7.30
2019-05-07T04:15:39.297Z,7.23
2019-05-07T04:17:22.339Z,7.40
2019-05-07T04:18:53.763Z,7.00
2019-05-07T04:20:33.070Z,7.63
2019-05-07T04:22:08.522Z,7.67
2019-05-07T04:23:44.974Z,7.37
2019-05-07T04:25:29.654Z,7.40
2019-05-07T04:27:07.810Z,7.93
2019-05-07T04:28:57.960Z,8.03
2019-05-07T04:30:35.367Z,7.10
2019-05-07T04:32:14.346Z,7.13
2019-05-07T04:33:53.130Z,6.87
2019-05-07T04:35:33.488Z,7.27
2019-05-07T04:37:08.896Z,7.50
2019-05-07T04:38:46.324Z,7.73
2019-05-07T04:40:24.063Z,7.07
2019-05-07T04:42:03.427Z,7.17
2019-05-07T04:43:38.694Z,7.17
2019-05-07T04:45:15.306Z,7.23
2019-05-07T04:46:53.340Z,7.27
2019-05-07T04:48:30.021Z,7.27
2019-05-07T04:50:13.916Z,7.20
2019-05-07T04:51:57.663Z,7.30
2019-05-07T04:53:33.998Z,6.60
2019-05-07T04:55:13.754Z,6.97
2019-05-07T04:56:48.846Z,6.57
2019-05-07T04:58:26.755Z,7.00
2019-05-07T05:00:04.101Z,7.53
2019-05-07T05:01:43.594Z,8.17
2019-05-07T05:03:23.731Z,7.10
2019-05-07T05:05:02.523Z,6.83
2019-05-07T05:06:38.319Z,6.93
2019-05-07T05:08:14.773Z,7.27
2019-05-07T05:09:53.158Z,6.87
2019-05-07T05:11:29.391Z,6.90
2019-05-07T05:13:07.606Z,7.17
2019-05-07T05:14:44.145Z,7.40
2019-05-07T05:16:24.899Z,6.63
2019-05-07T05:18:02.678Z,7.13
2019-05-07T05:19:39.422Z,6.70
2019-05-07T05:21:35.849Z,6.63
2019-05-07T05:23:19.921Z,6.77
2019-05-07T05:25:08.560Z,6.73
2019-05-07T05:26:44.970Z,6.80
2019-05-07T05:28:21.872Z,7.07
2019-05-07T05:29:58.451Z,6.63
2019-05-07T05:31:34.917Z,6.60
2019-05-07T05:33:12.630Z,7.47
2019-05-07T05:34:49.166Z,7.57
2019-05-07T05:36:25.702Z,7.53
2019-05-07T05:38:03.070Z,6.40
2019-05-07T05:39:39.808Z,7.57
2019-05-07T05:41:17.192Z,7.43
2019-05-07T05:43:07.192Z,7.03
2019-05-07T05:44:43.695Z,7.87
2019-05-07T05:46:22.755Z,7.47
2019-05-07T05:48:04.658Z,6.83
2019-05-07T05:49:37.398Z,6.40
2019-05-07T05:51:17.988Z,7.23
2019-05-07T05:52:56.058Z,6.20
2019-05-07T05:54:43.145Z,7.37
2019-05-07T05:56:37.110Z,6.37
2019-05-07T05:58:24.336Z,6.50
2019-05-07T06:00:02.645Z,6.57
2019-05-07T06:01:57.266Z,6.77
2019-05-07T06:03:39.355Z,6.63
2019-05-07T06:05:34.775Z,6.43
2019-05-07T06:07:29.132Z,6.33
2019-05-07T06:09:19.127Z,6.40
2019-05-07T06:11:12.794Z,6.57
2019-05-07T06:13:07.337Z,6.50
2019-05-07T06:14:43.517Z,6.03
2019-05-07T06:16:24.284Z,5.97
2019-05-07T06:18:18.749Z,5.70
2019-05-07T06:20:04.647Z,5.83
2019-05-07T06:21:53.086Z,6.07
2019-05-07T06:23:32.963Z,6.10
2019-05-07T06:25:14.656Z,5.60
2019-05-07T06:26:49.517Z,5.40
2019-05-07T06:28:25.796Z,5.63
2019-05-07T06:30:04.874Z,6.37
2019-05-07T06:31:42.185Z,5.50
2019-05-07T06:33:18.755Z,5.70
2019-05-07T06:34:56.045Z,5.77
2019-05-07T06:36:33.959Z,5.60
2019-05-07T06:38:12.463Z,5.07
2019-05-07T06:40:06.225Z,5.00
2019-05-07T06:41:47.057Z,5.30
2019-05-07T06:43:25.242Z,4.77
2019-05-07T06:45:07.798Z,5.17
2019-05-07T06:46:44.239Z,4.93
2019-05-07T06:48:34.667Z,5.03
2019-05-07T06:49:59.851Z,4.90
2019-05-07T06:51:36.231Z,4.70
2019-05-07T06:53:12.373Z,5.37
2019-05-07T06:54:48.914Z,6.20
2019-05-07T06:56:26.230Z,4.90
2019-05-07T06:58:04.372Z,4.67
2019-05-07T06:59:42.635Z,5.13
2019-05-07T07:01:32.286Z,4.43
2019-05-07T07:03:13.287Z,4.10
2019-05-07T07:04:52.065Z,4.93
2019-05-07T07:06:32.205Z,4.27
2019-05-07T07:08:14.655Z,4.33
2019-05-07T07:09:55.937Z,4.27
2019-05-07T07:11:34.171Z,4.57
2019-05-07T07:13:11.955Z,4.20
2019-05-07T07:14:48.601Z,5.27
2019-05-07T07:16:24.936Z,4.30
2019-05-07T07:18:03.209Z,4.40
2019-05-07T07:19:39.344Z,4.70
2019-05-07T07:21:15.792Z,4.80
2019-05-07T07:22:52.103Z,4.97
2019-05-07T07:24:28.544Z,5.03
2019-05-07T07:26:07.691Z,4.60
2019-05-07T07:27:44.643Z,5.17
2019-05-07T07:29:22.748Z,4.53
2019-05-07T07:31:04.700Z,4.53
2019-05-07T07:32:42.752Z,4.77
2019-05-07T07:34:19.444Z,4.30
2019-05-07T07:35:57.107Z,5.60
2019-05-07T07:37:35.116Z,4.37
2019-05-07T07:39:12.691Z,4.13
2019-05-07T07:40:52.755Z,4.13
2019-05-07T07:42:29.300Z,4.27
2019-05-07T07:44:05.628Z,4.20
2019-05-07T07:45:42.263Z,3.80
2019-05-07T07:47:18.896Z,4.67
2019-05-07T07:49:06.643Z,4.30
2019-05-07T07:50:36.279Z,4.23
2019-05-07T07:52:12.624Z,3.83
2019-05-07T07:53:49.129Z,4.10
2019-05-07T07:55:33.118Z,4.27
2019-05-07T07:57:12.596Z,3.43
2019-05-07T07:59:04.272Z,3.83
2019-05-07T08:00:52.292Z,4.17
2019-05-07T08:02:32.177Z,3.63
2019-05-07T08:04:09.183Z,3.37
2019-05-07T08:05:46.030Z,4.20
2019-05-07T08:07:22.964Z,3.80
2019-05-07T08:09:02.089Z,3.47
2019-05-07T08:10:38.161Z,3.70
2019-05-07T08:12:16.155Z,3.50
2019-05-07T08:13:53.067Z,4.27
2019-05-07T08:15:29.526Z,3.90
2019-05-07T08:17:07.678Z,3.37
2019-05-07T08:18:44.281Z,3.47
2019-05-07T08:20:22.222Z,3.80
2019-05-07T08:21:59.177Z,4.03
2019-05-07T08:23:35.706Z,3.73
2019-05-07T08:25:12.628Z,3.37
2019-05-07T08:26:49.111Z,4.10
2019-05-07T08:28:25.728Z,3.37
2019-05-07T08:30:03.089Z,3.33
2019-05-07T08:31:59.849Z,3.30
2019-05-07T08:33:38.039Z,3.73
2019-05-07T08:35:19.189Z,3.43
2019-05-07T08:36:55.901Z,3.60
2019-05-07T08:38:33.977Z,4.37
2019-05-07T08:40:14.121Z,3.00
2019-05-07T08:41:52.726Z,3.73
2019-05-07T08:43:29.155Z,3.67
2019-05-07T08:45:13.722Z,3.77
2019-05-07T08:46:58.698Z,3.43
2019-05-07T08:48:36.683Z,3.20
2019-05-07T08:50:13.590Z,3.33
2019-05-07T08:52:03.553Z,2.97
2019-05-07T08:53:42.204Z,3.53
2019-05-07T08:55:19.273Z,3.10
2019-05-07T08:56:56.141Z,3.20
2019-05-07T08:58:32.828Z,3.50
2019-05-07T09:00:12.281Z,3.33
2019-05-07T09:01:47.867Z,2.77
2019-05-07T09:03:43.271Z,3.10
2019-05-07T09:05:21.972Z,3.07
2019-05-07T09:06:58.178Z,3.50
2019-05-07T09:08:34.545Z,3.43
2019-05-07T09:10:12.691Z,3.33
2019-05-07T09:11:49.189Z,3.63
2019-05-07T09:13:26.094Z,3.80
2019-05-07T09:15:02.553Z,3.90
2019-05-07T09:16:39.052Z,3.73
2019-05-07T09:18:16.738Z,4.07
2019-05-07T09:19:54.798Z,4.10
2019-05-07T09:21:34.452Z,3.70
2019-05-07T09:23:12.221Z,4.23
2019-05-07T09:24:49.158Z,3.83
2019-05-07T09:26:27.415Z,3.90
2019-05-07T09:28:03.828Z,4.10
2019-05-07T09:29:43.089Z,3.30
2019-05-07T09:31:27.127Z,3.50
2019-05-07T09:33:05.973Z,3.17
2019-05-07T09:34:44.147Z,3.67
2019-05-07T09:36:22.817Z,2.97
2019-05-07T09:38:03.202Z,3.40
2019-05-07T09:39:42.650Z,3.30
2019-05-07T09:41:27.746Z,3.23
2019-05-07T09:43:04.342Z,3.77
2019-05-07T09:44:42.486Z,3.97
2019-05-07T09:46:20.725Z,3.37
2019-05-07T09:47:57.303Z,3.70
2019-05-07T09:49:33.701Z,3.63
2019-05-07T09:51:12.265Z,3.90
2019-05-07T09:52:51.792Z,3.30
2019-05-07T09:54:28.550Z,3.50
2019-05-07T09:56:06.147Z,3.03
2019-05-07T09:57:42.703Z,3.40
2019-05-07T09:59:19.176Z,3.00
2019-05-07T10:00:56.604Z,2.73
2019-05-07T10:02:33.106Z,2.33
2019-05-07T10:04:09.624Z,2.30
2019-05-07T10:05:46.229Z,2.40
2019-05-07T10:07:22.959Z,2.30
2019-05-07T10:08:59.366Z,2.23
2019-05-07T10:10:35.915Z,2.20
2019-05-07T10:12:14.051Z,2.10
2019-05-07T10:13:54.321Z,2.27
2019-05-07T10:15:32.944Z,2.80
2019-05-07T10:17:27.156Z,2.90
2019-05-07T10:19:05.608Z,2.60
2019-05-07T10:20:42.351Z,2.30
2019-05-07T10:22:19.062Z,2.40
2019-05-07T10:23:55.657Z,2.57
2019-05-07T10:25:34.111Z,2.20
2019-05-07T10:27:12.834Z,2.07
2019-05-07T10:28:49.270Z,2.03
2019-05-07T10:30:25.776Z,2.37
2019-05-07T10:32:02.395Z,1.90
2019-05-07T10:33:38.811Z,1.60
2019-05-07T10:35:15.925Z,2.07
2019-05-07T10:36:52.530Z,1.90
2019-05-07T10:38:29.035Z,1.83
2019-05-07T10:40:12.295Z,2.20
2019-05-07T10:41:50.468Z,2.20
2019-05-07T10:43:26.993Z,2.00
2019-05-07T10:45:18.092Z,2.27
2019-05-07T10:47:05.575Z,2.07
2019-05-07T10:48:46.517Z,1.87
2019-05-07T10:50:35.469Z,2.80
2019-05-07T10:52:03.666Z,2.20
2019-05-07T10:53:42.449Z,1.87
2019-05-07T10:55:18.714Z,2.37
2019-05-07T10:56:55.214Z,2.70
2019-05-07T10:58:32.176Z,2.60
2019-05-07T11:00:12.389Z,2.33
2019-05-07T11:01:52.053Z,2.20
2019-05-07T11:03:32.434Z,2.50
2019-05-07T11:05:09.556Z,2.57
2019-05-07T11:06:45.881Z,2.63
2019-05-07T11:08:25.589Z,2.67
2019-05-07T11:10:02.059Z,2.60
2019-05-07T11:11:38.604Z,3.00
2019-05-07T11:13:15.030Z,2.73
2019-05-07T11:14:51.741Z,2.57
2019-05-07T11:16:29.888Z,2.60
2019-05-07T11:18:13.925Z,2.83
2019-05-07T11:19:50.626Z,2.97
2019-05-07T11:21:33.603Z,3.07
2019-05-07T11:23:10.883Z,2.73
2019-05-07T11:24:47.221Z,2.70
2019-05-07T11:26:23.730Z,3.17
2019-05-07T11:28:00.249Z,3.60
2019-05-07T11:29:36.777Z,2.67
2019-05-07T11:31:13.536Z,3.23
2019-05-07T11:32:52.057Z,3.43
2019-05-07T11:34:32.773Z,3.07
2019-05-07T11:36:09.243Z,2.90
2019-05-07T11:37:45.620Z,3.40
2019-05-07T11:39:22.744Z,3.60
2019-05-07T11:40:59.219Z,3.40
2019-05-07T11:42:45.083Z,3.33
2019-05-07T11:44:23.278Z,3.40
2019-05-07T11:46:12.904Z,3.70
2019-05-07T11:47:48.443Z,3.00
2019-05-07T11:49:29.004Z,3.23
2019-05-07T11:51:25.152Z,3.50
2019-05-07T11:53:03.323Z,3.23
2019-05-07T11:54:39.622Z,3.10
2019-05-07T11:56:16.059Z,3.87
2019-05-07T11:57:54.261Z,3.27
2019-05-07T11:59:32.616Z,2.90
2019-05-07T12:01:12.500Z,3.40
2019-05-07T12:02:48.634Z,3.13
2019-05-07T12:04:28.035Z,2.80
2019-05-07T12:06:04.572Z,3.67
2019-05-07T12:07:41.938Z,4.67
2019-05-07T12:09:18.727Z,2.60
2019-05-07T12:10:55.433Z,2.90
2019-05-07T12:12:32.591Z,3.10
2019-05-07T12:14:09.319Z,3.00
2019-05-07T12:15:45.858Z,3.00
2019-05-07T12:17:22.456Z,2.90
2019-05-07T12:18:58.996Z,3.27
2019-05-07T12:20:35.597Z,3.00
2019-05-07T12:22:12.176Z,2.60
2019-05-07T12:23:48.619Z,2.80
2019-05-07T12:25:24.870Z,2.83
2019-05-07T12:27:02.745Z,3.13
2019-05-07T12:28:41.785Z,3.30
2019-05-07T12:30:22.137Z,3.00
2019-05-07T12:32:02.780Z,2.80
2019-05-07T12:33:47.084Z,2.67
2019-05-07T12:35:23.587Z,2.50
2019-05-07T12:37:01.790Z,3.20
2019-05-07T12:38:39.112Z,2.37
2019-05-07T12:40:19.325Z,2.77
2019-05-07T12:41:57.489Z,2.60
2019-05-07T12:43:34.123Z,2.10
2019-05-07T12:45:12.708Z,2.73
2019-05-07T12:46:52.476Z,2.60
2019-05-07T12:48:29.051Z,2.97
2019-05-07T12:50:06.355Z,2.67
2019-05-07T12:51:50.253Z,2.37
2019-05-07T12:53:37.423Z,2.60
2019-05-07T12:55:33.723Z,3.30
2019-05-07T12:57:11.776Z,2.47
2019-05-07T12:58:51.689Z,3.10
2019-05-07T13:00:35.411Z,3.10
2019-05-07T13:02:38.181Z,3.27
2019-05-07T13:04:09.715Z,3.33
2019-05-07T13:05:46.149Z,3.40
2019-05-07T13:07:22.524Z,3.10
2019-05-07T13:08:58.917Z,3.10
2019-05-07T13:10:54.595Z,3.13
2019-05-07T13:12:32.197Z,3.80
2019-05-07T13:14:12.598Z,3.57
2019-05-07T13:15:49.259Z,3.03
2019-05-07T13:17:25.587Z,2.80
2019-05-07T13:19:02.031Z,2.53
2019-05-07T13:20:38.624Z,2.90
2019-05-07T13:22:15.155Z,2.70
2019-05-07T13:23:52.185Z,4.30
2019-05-07T13:25:29.276Z,2.93
2019-05-07T13:27:05.976Z,2.47
2019-05-07T13:28:44.381Z,2.80
2019-05-07T13:30:22.184Z,2.73
2019-05-07T13:32:02.962Z,2.70
2019-05-07T13:33:42.159Z,3.50
2019-05-07T13:35:19.987Z,2.90
2019-05-07T13:37:02.618Z,2.90
2019-05-07T13:38:39.191Z,2.50
2019-05-07T13:40:31.520Z,3.07
2019-05-07T13:42:12.534Z,3.17
2019-05-07T13:43:59.899Z,2.67
2019-05-07T13:45:38.573Z,2.60
2019-05-07T13:47:25.347Z,3.03
2019-05-07T13:49:02.987Z,3.03
2019-05-07T13:50:41.882Z,2.90
2019-05-07T13:52:18.544Z,3.73
2019-05-07T13:53:55.553Z,3.03
2019-05-07T13:55:32.432Z,3.03
2019-05-07T13:57:09.143Z,2.83
2019-05-07T13:58:45.569Z,3.30
2019-05-07T14:00:26.917Z,3.30
2019-05-07T14:02:05.135Z,3.07
2019-05-07T14:03:41.666Z,2.80
2019-05-07T14:05:18.182Z,3.40
2019-05-07T14:06:56.339Z,3.03
2019-05-07T14:08:34.684Z,3.50
2019-05-07T14:10:12.618Z,3.73
2019-05-07T14:11:49.299Z,3.73
2019-05-07T14:13:26.784Z,3.93
2019-05-07T14:15:03.991Z,3.77
2019-05-07T14:16:42.484Z,3.77
2019-05-07T14:18:23.231Z,3.80
2019-05-07T14:20:01.848Z,3.67
2019-05-07T14:21:37.830Z,4.13
2019-05-07T14:23:14.433Z,3.80
2019-05-07T14:24:53.265Z,3.50
2019-05-07T14:26:29.926Z,3.83
2019-05-07T14:28:06.400Z,3.50
2019-05-07T14:29:42.867Z,4.23
2019-05-07T14:31:19.419Z,3.50
2019-05-07T14:33:06.025Z,3.80
2019-05-07T14:35:02.053Z,4.10
2019-05-07T14:36:42.736Z,4.00
2019-05-07T14:38:23.482Z,4.13
2019-05-07T14:40:02.546Z,4.03
2019-05-07T14:41:38.136Z,3.43
2019-05-07T14:43:16.139Z,4.07
2019-05-07T14:44:52.902Z,4.27
2019-05-07T14:46:43.584Z,3.90
2019-05-07T14:48:07.541Z,4.27
2019-05-07T14:49:45.495Z,4.10
2019-05-07T14:51:22.233Z,4.50
2019-05-07T14:52:58.937Z,3.87
2019-05-07T14:54:35.558Z,3.80
2019-05-07T14:56:14.286Z,3.50
2019-05-07T14:57:52.427Z,3.70
2019-05-07T14:59:29.115Z,3.80
2019-05-07T15:01:05.718Z,3.80
2019-05-07T15:02:42.382Z,4.10
2019-05-07T15:04:18.751Z,4.67
2019-05-07T15:05:55.657Z,3.90
2019-05-07T15:07:32.697Z,3.80
2019-05-07T15:09:11.935Z,4.00
2019-05-07T15:10:49.064Z,3.50
2019-05-07T15:12:25.563Z,4.07
2019-05-07T15:14:02.638Z,4.53
2019-05-07T15:15:40.470Z,3.97
2019-05-07T15:17:22.261Z,3.57
2019-05-07T15:18:59.406Z,3.80
2019-05-07T15:20:35.837Z,4.10
2019-05-07T15:22:45.842Z,4.50
2019-05-07T15:24:08.667Z,4.07
2019-05-07T15:25:45.212Z,4.47
2019-05-07T15:27:22.939Z,4.10
2019-05-07T15:29:00.771Z,4.40
2019-05-07T15:30:52.354Z,4.63
2019-05-07T15:32:29.081Z,4.50
2019-05-07T15:34:05.691Z,4.07
2019-05-07T15:35:42.506Z,4.90
2019-05-07T15:37:19.140Z,5.27
2019-05-07T15:38:56.569Z,5.07
2019-05-07T15:40:33.125Z,5.43
2019-05-07T15:42:09.659Z,7.43
2019-05-07T15:43:46.346Z,5.47
2019-05-07T15:45:22.820Z,5.63
2019-05-07T15:47:02.610Z,6.43
2019-05-07T15:48:39.086Z,6.03
2019-05-07T15:50:15.822Z,5.90
2019-05-07T15:51:53.734Z,5.27
2019-05-07T15:53:32.410Z,4.80
2019-05-07T15:55:08.975Z,5.13
2019-05-07T15:56:45.350Z,5.03
2019-05-07T15:58:23.423Z,5.93
2019-05-07T16:00:07.289Z,4.73
2019-05-07T16:01:43.826Z,5.00
2019-05-07T16:03:25.630Z,5.47
2019-05-07T16:05:04.773Z,5.40
2019-05-07T16:06:42.288Z,5.80
2019-05-07T16:08:19.143Z,5.80
2019-05-07T16:09:56.089Z,5.90
2019-05-07T16:11:32.640Z,5.70
2019-05-07T16:13:13.443Z,5.53
2019-05-07T16:14:48.765Z,5.23
2019-05-07T16:16:25.228Z,5.33
2019-05-07T16:18:05.936Z,5.50
2019-05-07T16:19:42.629Z,5.80
2019-05-07T16:21:19.103Z,5.23
2019-05-07T16:22:57.122Z,5.27
2019-05-07T16:24:33.474Z,6.83
2019-05-07T16:26:09.962Z,5.77
2019-05-07T16:27:46.483Z,5.77
2019-05-07T16:29:22.788Z,5.57
2019-05-07T16:30:59.239Z,5.33
2019-05-07T16:32:35.615Z,5.50
2019-05-07T16:34:12.648Z,6.20
2019-05-07T16:35:49.307Z,6.37
2019-05-07T16:37:25.504Z,6.43
2019-05-07T16:39:03.420Z,6.60
2019-05-07T16:40:40.163Z,5.90
2019-05-07T16:42:16.772Z,6.63
2019-05-07T16:43:53.333Z,7.17
2019-05-07T16:45:29.886Z,6.80
2019-05-07T16:47:06.500Z,6.77
2019-05-07T16:48:43.927Z,6.33
2019-05-07T16:50:22.361Z,6.50
2019-05-07T16:52:01.475Z,6.57
2019-05-07T16:53:37.322Z,6.47
2019-05-07T16:55:15.074Z,6.53
2019-05-07T16:57:09.274Z,7.23
2019-05-07T16:59:07.462Z,6.50
2019-05-07T17:00:48.035Z,7.60
2019-05-07T17:02:26.136Z,7.40
2019-05-07T17:04:02.978Z,6.87
2019-05-07T17:05:39.343Z,7.10
2019-05-07T17:07:17.250Z,6.97
2019-05-07T17:09:04.101Z,6.33
2019-05-07T17:10:42.455Z,6.60
2019-05-07T17:12:21.960Z,6.47
2019-05-07T17:13:59.562Z,8.10
2019-05-07T17:15:37.736Z,7.40
2019-05-07T17:17:14.182Z,7.23
2019-05-07T17:18:51.829Z,6.90
2019-05-07T17:20:28.736Z,7.63
2019-05-07T17:22:06.616Z,6.20
2019-05-07T17:23:48.471Z,6.67
2019-05-07T17:25:39.983Z,6.30
2019-05-07T17:27:16.528Z,6.37
2019-05-07T17:28:52.963Z,6.33
2019-05-07T17:30:29.591Z,8.40
2019-05-07T17:32:06.122Z,6.57
2019-05-07T17:33:42.600Z,7.70
2019-05-07T17:35:19.153Z,9.67
2019-05-07T17:36:56.524Z,7.70
2019-05-07T17:38:33.032Z,7.07
2019-05-07T17:40:09.574Z,7.23
2019-05-07T17:41:46.063Z,7.73
2019-05-07T17:43:22.501Z,7.30
2019-05-07T17:44:58.961Z,6.50
2019-05-07T17:46:35.459Z,7.10
2019-05-07T17:48:12.349Z,6.47
2019-05-07T17:49:49.786Z,6.70
2019-05-07T17:51:45.280Z,7.13
2019-05-07T17:53:22.567Z,8.47
2019-05-07T17:54:59.155Z,8.07
2019-05-07T17:56:35.655Z,8.30
2019-05-07T17:58:12.857Z,8.20
2019-05-07T17:59:49.532Z,8.43
2019-05-07T18:01:27.704Z,17.73
2019-05-07T18:03:13.203Z,29.07
2019-05-07T18:04:53.993Z,17.27
2019-05-07T18:06:27.616Z,11.80
2019-05-07T18:08:03.545Z,12.37
2019-05-07T18:09:42.478Z,11.17
2019-05-07T18:11:23.663Z,11.63
2019-05-07T18:12:57.191Z,15.97
2019-05-07T18:14:33.655Z,12.47
2019-05-07T18:16:12.139Z,12.60
2019-05-07T18:18:02.862Z,12.23
2019-05-07T18:19:38.417Z,9.90
2019-05-07T18:21:14.877Z,14.13
2019-05-07T18:22:52.120Z,20.03
2019-05-07T18:24:28.597Z,24.40
2019-05-07T18:26:05.018Z,138.37
2019-05-07T18:27:42.036Z,46.37
2019-05-07T18:29:18.602Z,36.47
2019-05-07T18:30:55.128Z,65.37
2019-05-07T18:32:36.425Z,19.40
2019-05-07T18:34:12.945Z,14.43
2019-05-07T18:35:52.567Z,13.73
2019-05-07T18:37:29.204Z,12.10
2019-05-07T18:39:07.908Z,22.23
2019-05-07T18:40:44.312Z,32.60
2019-05-07T18:42:22.172Z,15.07
2019-05-07T18:44:09.945Z,23.40
2019-05-07T18:45:38.083Z,22.70
2019-05-07T18:47:14.449Z,28.07
2019-05-07T18:48:51.857Z,17.07
2019-05-07T18:50:28.612Z,11.50
2019-05-07T18:52:05.157Z,19.63
2019-05-07T18:53:42.516Z,17.63
2019-05-07T18:55:19.203Z,10.83
2019-05-07T18:56:55.766Z,12.70
2019-05-07T18:58:32.183Z,12.60
2019-05-07T19:00:16.493Z,12.80
2019-05-07T19:01:52.920Z,12.30
2019-05-07T19:03:29.257Z,23.00
2019-05-07T19:05:07.461Z,10.80
2019-05-07T19:06:43.867Z,11.47
2019-05-07T19:08:20.325Z,10.17
2019-05-07T19:09:56.850Z,12.40
2019-05-07T19:11:33.592Z,12.17
2019-05-07T19:13:09.898Z,10.13
2019-05-07T19:14:46.757Z,10.13
2019-05-07T19:16:23.367Z,11.23
2019-05-07T19:18:02.504Z,10.07
2019-05-07T19:19:38.551Z,10.80
2019-05-07T19:21:15.067Z,10.50
2019-05-07T19:22:51.882Z,10.73
2019-05-07T19:24:48.280Z,14.07
2019-05-07T19:26:24.907Z,11.20
2019-05-07T19:28:01.995Z,9.90
2019-05-07T19:29:38.511Z,10.47
2019-05-07T19:31:15.714Z,11.23
2019-05-07T19:32:52.258Z,11.67
2019-05-07T19:34:28.760Z,13.60
2019-05-07T19:36:05.492Z,18.80
2019-05-07T19:37:42.555Z,15.00
2019-05-07T19:39:19.212Z,12.20
2019-05-07T19:40:55.738Z,12.03
2019-05-07T19:42:32.237Z,9.47
2019-05-07T19:44:08.743Z,8.30
2019-05-07T19:45:46.676Z,8.07
2019-05-07T19:47:23.423Z,8.00
2019-05-07T19:48:59.846Z,8.27
2019-05-07T19:50:36.146Z,7.00
2019-05-07T19:52:14.642Z,6.20
2019-05-07T19:53:52.550Z,7.20
2019-05-07T19:55:32.707Z,9.33
2019-05-07T19:57:11.936Z,6.90
2019-05-07T19:58:48.961Z,6.53
2019-05-07T20:00:27.050Z,6.07
2019-05-07T20:02:05.363Z,5.83
2019-05-07T20:03:43.474Z,6.90
2019-05-07T20:05:20.454Z,6.13
2019-05-07T20:06:58.954Z,5.87
2019-05-07T20:08:35.514Z,5.17
2019-05-07T20:10:13.657Z,6.73
2019-05-07T20:11:52.344Z,7.20
2019-05-07T20:13:28.945Z,10.60
2019-05-07T20:15:07.230Z,8.07
2019-05-07T20:16:45.474Z,6.67
2019-05-07T20:18:22.213Z,6.67
2019-05-07T20:19:59.073Z,7.73
2019-05-07T20:21:35.852Z,6.97
2019-05-07T20:23:15.451Z,5.80
2019-05-07T20:24:52.830Z,5.57
2019-05-07T20:26:32.087Z,5.50
2019-05-07T20:28:07.914Z,5.30
2019-05-07T20:29:44.619Z,4.90
2019-05-07T20:31:22.708Z,5.27
2019-05-07T20:32:59.252Z,4.63
2019-05-07T20:34:36.223Z,5.43
2019-05-07T20:36:12.924Z,5.93
2019-05-07T20:37:52.467Z,5.70
2019-05-07T20:39:29.113Z,5.40
2019-05-07T20:41:06.144Z,7.80
2019-05-07T20:42:42.954Z,9.13
2019-05-07T20:44:19.903Z,9.57
2019-05-07T20:45:56.728Z,7.60
2019-05-07T20:47:33.474Z,7.60
2019-05-07T20:49:10.056Z,7.10
2019-05-07T20:50:47.008Z,6.67
2019-05-07T20:52:23.459Z,6.17
2019-05-07T20:54:17.189Z,5.03
2019-05-07T20:55:55.222Z,5.77
2019-05-07T20:57:33.406Z,5.33
2019-05-07T20:59:12.325Z,5.27
2019-05-07T21:00:48.333Z,5.97
2019-05-07T21:02:24.865Z,5.10
2019-05-07T21:04:02.096Z,5.60
2019-05-07T21:05:38.623Z,5.70
2019-05-07T21:07:15.060Z,6.47
2019-05-07T21:08:51.697Z,5.60
2019-05-07T21:10:28.128Z,5.57
2019-05-07T21:12:05.631Z,6.60
2019-05-07T21:13:44.646Z,5.90
2019-05-07T21:15:20.384Z,6.37
2019-05-07T21:16:57.951Z,6.73
2019-05-07T21:18:34.458Z,10.27
2019-05-07T21:20:12.112Z,38.50
2019-05-07T21:21:50.206Z,31.17
2019-05-07T21:23:26.746Z,45.00
2019-05-07T21:25:03.876Z,61.77
2019-05-07T21:26:42.187Z,52.10
2019-05-07T21:28:21.714Z,48.37
2019-05-07T21:29:58.603Z,40.07
2019-05-07T21:31:35.103Z,31.03
2019-05-07T21:33:12.083Z,22.03
2019-05-07T21:34:48.728Z,18.87
2019-05-07T21:36:25.164Z,16.73
2019-05-07T21:38:00.946Z,17.63
2019-05-07T21:39:37.306Z,19.43
2019-05-07T21:41:13.742Z,19.03
2019-05-07T21:42:52.015Z,18.40
2019-05-07T21:44:28.290Z,19.97
2019-05-07T21:46:04.728Z,19.73
2019-05-07T21:47:40.995Z,20.00
2019-05-07T21:49:17.295Z,21.57